createdAt,value
2023-01-19T00:00:43.036Z,-0.9
2023-01-19T00:01:43.302Z,-0.9
2023-01-19T00:02:43.617Z,-0.9
2023-01-19T00:03:43.898Z,-0.9
2023-01-19T00:04:44.104Z,-0.9
2023-01-19T00:05:44.488Z,-0.9
2023-01-19T00:06:44.672Z,-0.9
2023-01-19T00:07:44.850Z,-0.9
2023-01-19T00:08:45.022Z,-0.9
2023-01-19T00:09:45.206Z,-0.9
2023-01-19T00:10:45.398Z,-0.9
2023-01-19T00:11:45.581Z,-0.9
2023-01-19T00:12:45.759Z,-0.9
2023-01-19T00:13:45.930Z,-0.9
2023-01-19T00:14:46.104Z,-0.9
2023-01-19T00:15:46.288Z,-0.9
2023-01-19T00:16:46.494Z,-0.9
2023-01-19T00:17:46.658Z,-0.9
2023-01-19T00:18:46.828Z,-0.9
2023-01-19T00:19:46.990Z,-0.9
2023-01-19T00:20:47.180Z,-0.9
2023-01-19T00:21:47.359Z,-0.9
2023-01-19T00:22:47.533Z,-0.9
2023-01-19T00:23:47.731Z,-0.9
2023-01-19T00:24:47.919Z,-0.9
2023-01-19T00:25:48.102Z,-0.9
2023-01-19T00:26:48.277Z,-0.9
2023-01-19T00:27:48.447Z,-0.9
2023-01-19T00:28:48.620Z,-0.9
2023-01-19T00:29:48.802Z,-0.9
2023-01-19T00:30:48.969Z,-0.9
2023-01-19T00:31:49.216Z,-0.9
2023-01-19T00:32:49.473Z,-0.9
2023-01-19T00:33:49.655Z,-0.9
2023-01-19T00:34:49.826Z,-0.9
2023-01-19T00:35:50.013Z,-1
2023-01-19T00:36:50.186Z,-1
2023-01-19T00:37:50.365Z,-1
2023-01-19T00:38:50.559Z,-1
2023-01-19T00:39:50.731Z,-1
2023-01-19T00:40:50.897Z,-1
2023-01-19T00:41:51.063Z,-1
2023-01-19T00:42:51.232Z,-1
2023-01-19T00:43:51.398Z,-1
2023-01-19T00:44:51.560Z,-1
2023-01-19T00:45:51.889Z,-1
2023-01-19T00:46:52.148Z,-1
2023-01-19T00:47:52.319Z,-1
2023-01-19T00:48:52.482Z,-1
2023-01-19T00:49:52.655Z,-1
2023-01-19T00:50:52.870Z,-1
2023-01-19T00:51:53.049Z,-1
2023-01-19T00:52:53.218Z,-1
2023-01-19T00:53:53.397Z,-1
2023-01-19T00:54:53.571Z,-1
2023-01-19T00:55:53.749Z,-1.1
2023-01-19T00:56:53.915Z,-1.1
2023-01-19T00:57:54.078Z,-1.1
2023-01-19T00:58:54.245Z,-1.1
2023-01-19T00:59:54.409Z,-1.1
2023-01-19T01:00:54.818Z,-1.1
2023-01-19T01:01:55.474Z,-1.1
2023-01-19T01:02:56.158Z,-1.1
2023-01-19T01:03:56.468Z,-1.1
2023-01-19T01:04:56.646Z,-1.1
2023-01-19T01:05:56.875Z,-1.2
2023-01-19T01:06:57.054Z,-1.2
2023-01-19T01:07:57.249Z,-1.2
2023-01-19T01:08:57.432Z,-1.2
2023-01-19T01:09:57.631Z,-1.2
2023-01-19T01:10:57.807Z,-1.2
2023-01-19T01:11:59.941Z,-1.2
2023-01-19T01:13:22.307Z,-1.2
2023-01-19T01:14:27.798Z,-1.2
2023-01-19T01:15:28.049Z,-1.2
2023-01-19T01:16:28.520Z,-1.2
2023-01-19T01:17:28.765Z,-1.2
2023-01-19T01:18:28.963Z,-1.2
2023-01-19T01:19:29.150Z,-1.2
2023-01-19T01:20:29.315Z,-1.2
2023-01-19T01:21:29.521Z,-1.2
2023-01-19T01:22:29.704Z,-1.2
2023-01-19T01:23:29.884Z,-1.2
2023-01-19T01:24:30.055Z,-1.2
2023-01-19T01:25:30.253Z,-1.3
2023-01-19T01:26:30.405Z,-1.3
2023-01-19T01:27:30.597Z,-1.3
2023-01-19T01:28:30.775Z,-1.3
2023-01-19T01:29:30.997Z,-1.3
2023-01-19T01:30:31.183Z,-1.3
2023-01-19T01:31:31.458Z,-1.3
2023-01-19T01:32:31.744Z,-1.3
2023-01-19T01:33:41.946Z,-1.3
2023-01-19T01:34:42.272Z,-1.4
2023-01-19T01:35:42.446Z,-1.5
2023-01-19T01:36:42.614Z,-1.5
2023-01-19T01:37:42.847Z,-1.5
2023-01-19T01:38:43.125Z,-1.5
2023-01-19T01:39:43.325Z,-1.5
2023-01-19T01:40:43.527Z,-1.5
2023-01-19T01:41:44.728Z,-1.5
2023-01-19T01:42:44.969Z,-1.5
2023-01-19T01:43:45.144Z,-1.5
2023-01-19T01:44:45.309Z,-1.5
2023-01-19T01:45:45.568Z,-1.6
2023-01-19T01:46:45.798Z,-1.6
2023-01-19T01:47:45.983Z,-1.6
2023-01-19T01:48:46.171Z,-1.6
2023-01-19T01:49:46.356Z,-1.6
2023-01-19T01:50:46.519Z,-1.6
2023-01-19T01:51:46.696Z,-1.6
2023-01-19T01:53:08.161Z,-1.6
2023-01-19T01:54:08.676Z,-1.7
2023-01-19T01:55:08.862Z,-1.8
2023-01-19T01:56:09.078Z,-1.8
2023-01-19T01:57:09.464Z,-1.8
2023-01-19T01:58:09.649Z,-1.8
2023-01-19T01:59:09.816Z,-1.8
2023-01-19T02:00:09.984Z,-1.8
2023-01-19T02:01:10.403Z,-1.8
2023-01-19T02:02:10.850Z,-1.8
2023-01-19T02:03:11.507Z,-1.8
2023-01-19T02:04:11.762Z,-1.8
2023-01-19T02:05:11.965Z,-1.9
2023-01-19T02:06:12.145Z,-1.9
2023-01-19T02:07:12.318Z,-1.9
2023-01-19T02:08:12.519Z,-1.9
2023-01-19T02:09:12.694Z,-1.9
2023-01-19T02:10:12.897Z,-1.9
2023-01-19T02:11:13.086Z,-1.9
2023-01-19T02:12:13.265Z,-1.9
2023-01-19T02:13:13.436Z,-1.9
2023-01-19T02:14:13.602Z,-1.9
2023-01-19T02:15:13.780Z,-2
2023-01-19T02:16:13.955Z,-2
2023-01-19T02:17:14.149Z,-2
2023-01-19T02:18:14.316Z,-2
2023-01-19T02:19:14.505Z,-2
2023-01-19T02:20:14.775Z,-2
2023-01-19T02:21:15.001Z,-2
2023-01-19T02:22:15.164Z,-2
2023-01-19T02:23:15.339Z,-2
2023-01-19T02:24:15.504Z,-2
2023-01-19T02:25:15.670Z,-2.09
2023-01-19T02:26:15.855Z,-2.09
2023-01-19T02:27:16.041Z,-2.09
2023-01-19T02:28:16.213Z,-2.09
2023-01-19T02:29:16.391Z,-2.09
2023-01-19T02:30:16.706Z,-2.09
2023-01-19T02:31:17.056Z,-2.09
2023-01-19T02:32:17.228Z,-2.09
2023-01-19T02:33:17.412Z,-2.09
2023-01-19T02:34:17.580Z,-2.09
2023-01-19T02:35:17.759Z,-2.2
2023-01-19T02:36:17.931Z,-2.2
2023-01-19T02:37:18.113Z,-2.2
2023-01-19T02:38:18.279Z,-2.2
2023-01-19T02:39:18.444Z,-2.2
2023-01-19T02:40:18.621Z,-2.2
2023-01-19T02:41:18.793Z,-2.2
2023-01-19T02:42:18.957Z,-2.2
2023-01-19T02:43:19.135Z,-2.2
2023-01-19T02:44:19.315Z,-2.2
2023-01-19T02:45:19.485Z,-2.3
2023-01-19T02:46:19.854Z,-2.3
2023-01-19T02:47:20.179Z,-2.3
2023-01-19T02:48:20.352Z,-2.3
2023-01-19T02:49:20.541Z,-2.3
2023-01-19T02:50:20.711Z,-2.3
2023-01-19T02:51:20.880Z,-2.3
2023-01-19T02:52:21.065Z,-2.3
2023-01-19T02:53:21.242Z,-2.3
2023-01-19T02:54:21.440Z,-2.3
2023-01-19T02:55:21.635Z,-2.4
2023-01-19T02:56:21.806Z,-2.4
2023-01-19T02:57:22.027Z,-2.4
2023-01-19T02:58:22.254Z,-2.4
2023-01-19T02:59:22.474Z,-2.4
2023-01-19T03:00:22.720Z,-2.4
2023-01-19T03:01:23.253Z,-2.4
2023-01-19T03:02:23.817Z,-2.4
2023-01-19T03:03:24.103Z,-2.4
2023-01-19T03:04:24.278Z,-2.4
2023-01-19T03:05:24.453Z,-2.4
2023-01-19T03:06:24.627Z,-2.4
2023-01-19T03:07:24.798Z,-2.4
2023-01-19T03:08:24.989Z,-2.4
2023-01-19T03:09:25.167Z,-2.4
2023-01-19T03:10:25.328Z,-2.4
2023-01-19T03:11:25.492Z,-2.4
2023-01-19T03:12:25.682Z,-2.4
2023-01-19T03:13:25.854Z,-2.4
2023-01-19T03:14:26.018Z,-2.4
2023-01-19T03:15:26.286Z,-2.5
2023-01-19T03:16:26.645Z,-2.5
2023-01-19T03:17:26.871Z,-2.5
2023-01-19T03:18:27.052Z,-2.5
2023-01-19T03:19:27.337Z,-2.5
2023-01-19T03:20:27.528Z,-2.5
2023-01-19T03:21:27.696Z,-2.5
2023-01-19T03:22:27.864Z,-2.5
2023-01-19T03:23:28.027Z,-2.5
2023-01-19T03:24:28.200Z,-2.5
2023-01-19T03:25:28.380Z,-2.6
2023-01-19T03:26:28.553Z,-2.6
2023-01-19T03:27:28.727Z,-2.6
2023-01-19T03:28:28.916Z,-2.6
2023-01-19T03:29:29.308Z,-2.6
2023-01-19T03:30:29.540Z,-2.6
2023-01-19T03:31:29.699Z,-2.6
2023-01-19T03:32:29.877Z,-2.6
2023-01-19T03:33:30.046Z,-2.6
2023-01-19T03:34:30.211Z,-2.6
2023-01-19T03:35:30.383Z,-2.6
2023-01-19T03:36:30.565Z,-2.6
2023-01-19T03:37:30.756Z,-2.6
2023-01-19T03:38:31.000Z,-2.6
2023-01-19T03:39:31.171Z,-2.6
2023-01-19T03:40:31.355Z,-2.6
2023-01-19T03:41:31.528Z,-2.6
2023-01-19T03:42:31.702Z,-2.6
2023-01-19T03:43:31.919Z,-2.6
2023-01-19T03:44:32.095Z,-2.6
2023-01-19T03:45:32.293Z,-2.7
2023-01-19T03:46:32.464Z,-2.7
2023-01-19T03:47:32.710Z,-2.7
2023-01-19T03:48:32.890Z,-2.7
2023-01-19T03:49:33.076Z,-2.7
2023-01-19T03:50:33.258Z,-2.7
2023-01-19T03:51:33.449Z,-2.7
2023-01-19T03:52:33.645Z,-2.7
2023-01-19T03:53:33.837Z,-2.7
2023-01-19T03:54:34.017Z,-2.7
2023-01-19T03:55:34.201Z,-2.7
2023-01-19T03:56:34.387Z,-2.7
2023-01-19T03:57:34.574Z,-2.7
2023-01-19T03:58:34.782Z,-2.7
2023-01-19T03:59:34.976Z,-2.7
2023-01-19T04:00:35.147Z,-2.7
2023-01-19T04:01:35.494Z,-2.7
2023-01-19T04:02:36.113Z,-2.7
2023-01-19T04:03:36.423Z,-2.7
2023-01-19T04:04:36.612Z,-2.7
2023-01-19T04:05:36.801Z,-2.8
2023-01-19T04:06:36.978Z,-2.8
2023-01-19T04:07:37.164Z,-2.8
2023-01-19T04:08:37.371Z,-2.8
2023-01-19T04:09:37.566Z,-2.8
2023-01-19T04:10:37.733Z,-2.8
2023-01-19T04:11:37.895Z,-2.8
2023-01-19T04:12:38.070Z,-2.8
2023-01-19T04:13:38.259Z,-2.8
2023-01-19T04:14:38.434Z,-2.8
2023-01-19T04:15:38.739Z,-2.9
2023-01-19T04:16:39.071Z,-2.9
2023-01-19T04:17:39.237Z,-2.9
2023-01-19T04:18:39.417Z,-2.9
2023-01-19T04:19:39.602Z,-2.9
2023-01-19T04:20:39.765Z,-2.9
2023-01-19T04:21:39.941Z,-2.9
2023-01-19T04:22:40.133Z,-2.9
2023-01-19T04:23:40.305Z,-2.9
2023-01-19T04:24:40.492Z,-2.9
2023-01-19T04:25:40.666Z,-3
2023-01-19T04:26:40.853Z,-3
2023-01-19T04:27:41.074Z,-3
2023-01-19T04:28:41.337Z,-3
2023-01-19T04:29:41.527Z,-3
2023-01-19T04:30:41.695Z,-3
2023-01-19T04:31:41.881Z,-3
2023-01-19T04:32:42.046Z,-3
2023-01-19T04:33:42.212Z,-3
2023-01-19T04:34:42.393Z,-3
2023-01-19T04:35:42.597Z,-3.1
2023-01-19T04:36:42.766Z,-3.1
2023-01-19T04:37:42.947Z,-3.1
2023-01-19T04:38:43.128Z,-3.1
2023-01-19T04:39:43.337Z,-3.1
2023-01-19T04:40:43.514Z,-3.1
2023-01-19T04:41:43.705Z,-3.1
2023-01-19T04:42:43.904Z,-3.1
2023-01-19T04:43:44.099Z,-3.1
2023-01-19T04:44:44.301Z,-3.1
2023-01-19T04:45:44.463Z,-3.2
2023-01-19T04:46:44.804Z,-3.2
2023-01-19T04:47:45.185Z,-3.2
2023-01-19T04:48:45.373Z,-3.2
2023-01-19T04:49:45.799Z,-3.2
2023-01-19T04:50:46.009Z,-3.2
2023-01-19T04:51:46.206Z,-3.2
2023-01-19T04:52:46.389Z,-3.2
2023-01-19T04:53:46.562Z,-3.2
2023-01-19T04:54:46.754Z,-3.2
2023-01-19T04:55:46.997Z,-3.3
2023-01-19T04:56:47.188Z,-3.3
2023-01-19T04:57:47.359Z,-3.3
2023-01-19T04:58:47.545Z,-3.3
2023-01-19T04:59:47.721Z,-3.3
2023-01-19T05:00:47.990Z,-3.3
2023-01-19T05:01:48.327Z,-3.3
2023-01-19T05:02:48.866Z,-3.3
2023-01-19T05:03:49.092Z,-3.3
2023-01-19T05:04:49.271Z,-3.3
2023-01-19T05:05:49.461Z,-3.4
2023-01-19T05:06:49.649Z,-3.4
2023-01-19T05:07:49.861Z,-3.4
2023-01-19T05:08:50.064Z,-3.4
2023-01-19T05:09:50.261Z,-3.4
2023-01-19T05:10:50.427Z,-3.4
2023-01-19T05:11:50.607Z,-3.4
2023-01-19T05:12:50.781Z,-3.4
2023-01-19T05:13:51.649Z,-3.4
2023-01-19T05:14:51.832Z,-3.4
2023-01-19T05:15:52.146Z,-3.4
2023-01-19T05:16:52.446Z,-3.4
2023-01-19T05:17:52.637Z,-3.4
2023-01-19T05:18:52.809Z,-3.4
2023-01-19T05:19:53.002Z,-3.4
2023-01-19T05:20:53.188Z,-3.4
2023-01-19T05:21:53.358Z,-3.4
2023-01-19T05:22:53.571Z,-3.4
2023-01-19T05:23:53.778Z,-3.4
2023-01-19T05:24:53.948Z,-3.4
2023-01-19T05:25:54.112Z,-3.4
2023-01-19T05:26:54.285Z,-3.4
2023-01-19T05:27:54.473Z,-3.4
2023-01-19T05:28:54.646Z,-3.4
2023-01-19T05:29:54.831Z,-3.4
2023-01-19T05:30:55.043Z,-3.4
2023-01-19T05:31:55.362Z,-3.4
2023-01-19T05:32:55.630Z,-3.4
2023-01-19T05:33:55.797Z,-3.4
2023-01-19T05:34:55.990Z,-3.4
2023-01-19T05:35:56.190Z,-3.3
2023-01-19T05:36:56.368Z,-3.3
2023-01-19T05:37:56.552Z,-3.3
2023-01-19T05:38:56.743Z,-3.3
2023-01-19T05:39:56.910Z,-3.3
2023-01-19T05:40:57.087Z,-3.3
2023-01-19T05:41:57.268Z,-3.3
2023-01-19T05:42:57.568Z,-3.3
2023-01-19T05:43:57.884Z,-3.3
2023-01-19T05:44:58.078Z,-3.3
2023-01-19T05:45:58.258Z,-3.3
2023-01-19T05:46:58.595Z,-3.3
2023-01-19T05:47:59.028Z,-3.3
2023-01-19T05:48:59.215Z,-3.3
2023-01-19T05:49:59.418Z,-3.3
2023-01-19T05:50:59.614Z,-3.3
2023-01-19T05:51:59.781Z,-3.3
2023-01-19T05:53:00.851Z,-3.3
2023-01-19T05:54:01.811Z,-3.3
2023-01-19T05:55:01.993Z,-3.2
2023-01-19T05:56:02.173Z,-3.2
2023-01-19T05:57:02.352Z,-3.2
2023-01-19T05:58:02.538Z,-3.2
2023-01-19T05:59:02.724Z,-3.2
2023-01-19T06:00:02.928Z,-3.2
2023-01-19T06:01:03.195Z,-3.2
2023-01-19T06:02:03.619Z,-3.2
2023-01-19T06:03:05.010Z,-3.2
2023-01-19T06:04:05.607Z,-3.2
2023-01-19T06:05:05.774Z,-3.2
2023-01-19T06:06:05.961Z,-3.2
2023-01-19T06:07:06.135Z,-3.2
2023-01-19T06:08:06.313Z,-3.2
2023-01-19T06:09:06.516Z,-3.2
2023-01-19T06:10:06.689Z,-3.2
2023-01-19T06:11:06.861Z,-3.2
2023-01-19T06:12:07.042Z,-3.2
2023-01-19T06:13:07.227Z,-3.2
2023-01-19T06:14:07.403Z,-3.2
2023-01-19T06:15:07.588Z,-3.1
2023-01-19T06:16:07.831Z,-3.1
2023-01-19T06:17:08.062Z,-3.1
2023-01-19T06:18:08.235Z,-3.1
2023-01-19T06:19:08.413Z,-3.1
2023-01-19T06:20:08.597Z,-3.1
2023-01-19T06:21:08.763Z,-3.1
2023-01-19T06:22:08.944Z,-3.1
2023-01-19T06:23:09.113Z,-3.1
2023-01-19T06:24:09.287Z,-3.1
2023-01-19T06:25:09.554Z,-3.2
2023-01-19T06:26:09.724Z,-3.2
2023-01-19T06:27:09.925Z,-3.2
2023-01-19T06:28:10.102Z,-3.2
2023-01-19T06:29:10.280Z,-3.2
2023-01-19T06:30:10.457Z,-3.2
2023-01-19T06:31:10.707Z,-3.2
2023-01-19T06:32:10.885Z,-3.2
2023-01-19T06:33:11.048Z,-3.2
2023-01-19T06:34:11.216Z,-3.2
2023-01-19T06:35:11.384Z,-3.2
2023-01-19T06:36:11.553Z,-3.2
2023-01-19T06:37:11.749Z,-3.2
2023-01-19T06:38:11.929Z,-3.2
2023-01-19T06:39:12.097Z,-3.2
2023-01-19T06:40:14.590Z,-3.2
2023-01-19T06:41:15.056Z,-3.2
2023-01-19T06:42:15.232Z,-3.2
2023-01-19T06:43:15.402Z,-3.2
2023-01-19T06:44:15.578Z,-3.2
2023-01-19T06:45:15.742Z,-3.2
2023-01-19T06:46:16.282Z,-3.2
2023-01-19T06:47:16.812Z,-3.2
2023-01-19T06:48:16.970Z,-3.2
2023-01-19T06:49:17.149Z,-3.2
2023-01-19T06:50:17.317Z,-3.2
2023-01-19T06:51:17.502Z,-3.2
2023-01-19T06:52:17.705Z,-3.2
2023-01-19T06:53:17.879Z,-3.2
2023-01-19T06:54:18.072Z,-3.2
2023-01-19T06:55:18.256Z,-3.1
2023-01-19T06:56:19.186Z,-3.1
2023-01-19T06:57:20.748Z,-3.1
2023-01-19T06:58:20.939Z,-3.1
2023-01-19T06:59:21.106Z,-3.1
2023-01-19T07:00:21.271Z,-3.1
2023-01-19T07:01:21.630Z,-3.1
2023-01-19T07:02:28.636Z,-3.1
2023-01-19T07:03:29.465Z,-3
2023-01-19T07:04:29.826Z,-3
2023-01-19T07:05:30.013Z,-3
2023-01-19T07:06:30.215Z,-3
2023-01-19T07:07:30.422Z,-3
2023-01-19T07:08:30.594Z,-3
2023-01-19T07:09:30.768Z,-3
2023-01-19T07:11:32.806Z,-3
2023-01-19T07:12:33.338Z,-2.9
2023-01-19T07:13:33.593Z,-2.9
2023-01-19T07:14:33.895Z,-2.9
2023-01-19T07:15:34.140Z,-2.9
2023-01-19T07:16:34.356Z,-2.9
2023-01-19T07:17:34.581Z,-2.9
2023-01-19T07:18:34.796Z,-2.9
2023-01-19T07:19:34.984Z,-2.9
2023-01-19T07:20:35.153Z,-2.9
2023-01-19T07:21:35.337Z,-2.9
2023-01-19T07:22:35.513Z,-2.9
2023-01-19T07:23:35.689Z,-2.9
2023-01-19T07:24:35.870Z,-2.9
2023-01-19T07:25:36.036Z,-3
2023-01-19T07:26:36.201Z,-3
2023-01-19T07:27:36.380Z,-3
2023-01-19T07:28:36.539Z,-3
2023-01-19T07:29:36.708Z,-3
2023-01-19T07:30:37.166Z,-3
2023-01-19T07:31:37.735Z,-3
2023-01-19T07:32:38.103Z,-3
2023-01-19T07:33:38.278Z,-3
2023-01-19T07:34:38.449Z,-3
2023-01-19T07:35:38.653Z,-2.9
2023-01-19T07:36:38.830Z,-2.9
2023-01-19T07:37:39.003Z,-2.9
2023-01-19T07:38:39.211Z,-2.9
2023-01-19T07:39:39.393Z,-2.9
2023-01-19T07:40:39.568Z,-2.9
2023-01-19T07:41:39.734Z,-2.9
2023-01-19T07:42:39.902Z,-2.9
2023-01-19T07:43:40.069Z,-2.9
2023-01-19T07:44:40.265Z,-2.9
2023-01-19T07:45:40.509Z,-3
2023-01-19T07:46:40.716Z,-3
2023-01-19T07:47:40.914Z,-3
2023-01-19T07:48:41.110Z,-3
2023-01-19T07:49:41.333Z,-3
2023-01-19T07:50:41.522Z,-3
2023-01-19T07:51:41.713Z,-3
2023-01-19T07:52:41.885Z,-3
2023-01-19T07:53:42.247Z,-3
2023-01-19T07:54:42.429Z,-3
2023-01-19T07:55:42.682Z,-2.9
2023-01-19T07:56:42.859Z,-2.9
2023-01-19T07:57:43.034Z,-2.9
2023-01-19T07:58:43.208Z,-2.9
2023-01-19T07:59:43.374Z,-2.9
2023-01-19T08:00:43.570Z,-2.9
2023-01-19T08:01:43.981Z,-2.9
2023-01-19T08:02:44.349Z,-2.9
2023-01-19T08:03:44.516Z,-2.9
2023-01-19T08:04:44.816Z,-2.9
2023-01-19T08:05:45.062Z,-2.9
2023-01-19T08:06:45.261Z,-2.9
2023-01-19T08:07:45.451Z,-2.9
2023-01-19T08:08:45.657Z,-2.9
2023-01-19T08:09:45.838Z,-2.9
2023-01-19T08:10:46.021Z,-2.9
2023-01-19T08:11:46.203Z,-2.9
2023-01-19T08:12:46.368Z,-2.9
2023-01-19T08:13:46.540Z,-2.9
2023-01-19T08:14:46.739Z,-2.9
2023-01-19T08:15:47.015Z,-2.9
2023-01-19T08:16:47.254Z,-2.9
2023-01-19T08:17:47.424Z,-2.9
2023-01-19T08:18:47.584Z,-2.9
2023-01-19T08:19:47.844Z,-2.9
2023-01-19T08:20:48.090Z,-2.9
2023-01-19T08:21:48.318Z,-2.9
2023-01-19T08:22:48.512Z,-2.9
2023-01-19T08:23:48.840Z,-2.9
2023-01-19T08:24:50.592Z,-2.9
2023-01-19T08:25:50.777Z,-2.8
2023-01-19T08:26:50.956Z,-2.8
2023-01-19T08:27:51.145Z,-2.8
2023-01-19T08:28:51.340Z,-2.8
2023-01-19T08:29:51.521Z,-2.8
2023-01-19T08:30:51.912Z,-2.8
2023-01-19T08:31:52.424Z,-2.8
2023-01-19T08:32:52.855Z,-2.8
2023-01-19T08:33:53.030Z,-2.8
2023-01-19T08:34:53.201Z,-2.8
2023-01-19T08:35:53.402Z,-2.6
2023-01-19T08:36:53.629Z,-2.6
2023-01-19T08:37:53.923Z,-2.6
2023-01-19T08:38:54.118Z,-2.6
2023-01-19T08:39:54.312Z,-2.6
2023-01-19T08:40:54.480Z,-2.6
2023-01-19T08:41:54.666Z,-2.6
2023-01-19T08:42:54.834Z,-2.6
2023-01-19T08:43:55.022Z,-2.6
2023-01-19T08:44:58.836Z,-2.6
2023-01-19T08:45:59.089Z,-2.4
2023-01-19T08:46:59.300Z,-2.4
2023-01-19T08:47:59.481Z,-2.4
2023-01-19T08:48:59.684Z,-2.4
2023-01-19T08:49:59.866Z,-2.4
2023-01-19T08:51:00.093Z,-2.4
2023-01-19T08:52:00.272Z,-2.4
2023-01-19T08:53:01.460Z,-2.4
2023-01-19T08:54:02.623Z,-2.4
2023-01-19T08:55:02.850Z,-2
2023-01-19T08:56:03.060Z,-2
2023-01-19T08:57:03.293Z,-2
2023-01-19T08:58:04.189Z,-2
2023-01-19T08:59:11.973Z,-2
2023-01-19T09:00:14.276Z,-1.8
2023-01-19T09:01:14.795Z,-1.8
2023-01-19T09:02:15.451Z,-1.8
2023-01-19T09:03:15.822Z,-1.8
2023-01-19T09:04:16.066Z,-1.8
2023-01-19T09:05:16.255Z,-1.4
2023-01-19T09:06:16.453Z,-1.4
2023-01-19T09:07:16.636Z,-1.4
2023-01-19T09:08:16.821Z,-1.4
2023-01-19T09:09:17.004Z,-1.4
2023-01-19T09:10:17.167Z,-1.4
2023-01-19T09:11:17.411Z,-1.4
2023-01-19T09:12:17.716Z,-1.4
2023-01-19T09:13:17.951Z,-1.4
2023-01-19T09:14:18.190Z,-1.4
2023-01-19T09:15:18.459Z,-0.7
2023-01-19T09:16:18.800Z,-0.7
2023-01-19T09:17:19.003Z,-0.7
2023-01-19T09:18:19.158Z,-0.7
2023-01-19T09:19:19.332Z,-0.7
2023-01-19T09:20:19.505Z,-0.7
2023-01-19T09:21:19.672Z,-0.7
2023-01-19T09:22:19.861Z,-0.7
2023-01-19T09:23:20.054Z,-0.7
2023-01-19T09:24:20.343Z,-0.7
2023-01-19T09:25:20.509Z,0.3
2023-01-19T09:26:20.697Z,0.3
2023-01-19T09:27:20.873Z,0.3
2023-01-19T09:28:21.083Z,0.3
2023-01-19T09:29:21.606Z,0.3
2023-01-19T09:30:21.806Z,0.3
2023-01-19T09:31:22.242Z,0.3
2023-01-19T09:32:22.584Z,1.3
2023-01-19T09:33:22.778Z,1.3
2023-01-19T09:34:22.958Z,1.3
2023-01-19T09:35:23.127Z,1.3
2023-01-19T09:36:23.290Z,1.3
2023-01-19T09:37:23.470Z,1.3
2023-01-19T09:38:23.643Z,1.3
2023-01-19T09:39:23.810Z,1.3
2023-01-19T09:40:23.983Z,1.3
2023-01-19T09:41:24.155Z,2.3
2023-01-19T09:42:24.344Z,2.3
2023-01-19T09:43:24.528Z,2.3
2023-01-19T09:44:24.725Z,2.3
2023-01-19T09:45:24.895Z,2.3
2023-01-19T09:46:25.154Z,2.3
2023-01-19T09:47:25.410Z,2.3
2023-01-19T09:48:25.607Z,2.3
2023-01-19T09:49:25.777Z,2.3
2023-01-19T09:50:25.953Z,3.3
2023-01-19T09:51:26.150Z,3.3
2023-01-19T09:52:26.329Z,3.3
2023-01-19T09:53:26.518Z,3.3
2023-01-19T09:54:26.696Z,3.3
2023-01-19T09:55:26.898Z,3.3
2023-01-19T09:56:27.067Z,3.3
2023-01-19T09:57:27.268Z,3.3
2023-01-19T09:58:27.432Z,3.3
2023-01-19T09:59:27.606Z,4.3
2023-01-19T10:00:27.868Z,4.3
2023-01-19T10:01:28.564Z,4.3
2023-01-19T10:02:28.930Z,4.3
2023-01-19T10:03:29.322Z,4.3
2023-01-19T10:04:29.583Z,4.3
2023-01-19T10:05:29.762Z,4.3
2023-01-19T10:06:29.927Z,4.3
2023-01-19T10:07:30.132Z,4.3
2023-01-19T10:08:30.316Z,5.3
2023-01-19T10:09:30.508Z,5.3
2023-01-19T10:10:30.679Z,5.3
2023-01-19T10:11:51.765Z,5.3
2023-01-19T10:12:53.577Z,5.6
2023-01-19T10:13:53.744Z,5.6
2023-01-19T10:14:53.913Z,5.6
2023-01-19T10:15:54.145Z,5.6
2023-01-19T10:16:54.394Z,5.6
2023-01-19T10:17:54.564Z,5.6
2023-01-19T10:18:54.731Z,6.1
2023-01-19T10:19:54.893Z,6.1
2023-01-19T10:20:55.303Z,6.1
2023-01-19T10:21:55.877Z,6.1
2023-01-19T10:22:56.105Z,6.1
2023-01-19T10:23:56.327Z,6.1
2023-01-19T10:24:56.520Z,6.1
2023-01-19T10:25:56.863Z,6.1
2023-01-19T10:26:57.290Z,6.1
2023-01-19T10:27:57.501Z,6.1
2023-01-19T10:28:57.728Z,6.7
2023-01-19T10:29:57.937Z,6.7
2023-01-19T10:30:58.278Z,6.7
2023-01-19T10:31:58.652Z,6.7
2023-01-19T10:32:59.888Z,6.7
2023-01-19T10:34:01.060Z,6.7
2023-01-19T10:35:01.390Z,6.7
2023-01-19T10:36:01.643Z,6.7
2023-01-19T10:37:01.931Z,6.7
2023-01-19T10:38:02.145Z,6.7
2023-01-19T10:39:02.422Z,7.4
2023-01-19T10:40:02.588Z,7.4
2023-01-19T10:41:03.003Z,7.4
2023-01-19T10:42:03.763Z,7.4
2023-01-19T10:43:04.905Z,7.4
2023-01-19T10:44:05.607Z,7.4
2023-01-19T10:45:05.838Z,7.4
2023-01-19T10:46:06.173Z,7.4
2023-01-19T10:47:06.443Z,7.4
2023-01-19T10:48:06.763Z,7.4
2023-01-19T10:49:07.152Z,8
2023-01-19T10:50:07.394Z,8
2023-01-19T10:51:07.635Z,8
2023-01-19T10:52:07.866Z,8
2023-01-19T10:53:08.071Z,8
2023-01-19T10:54:08.366Z,8
2023-01-19T10:55:08.594Z,8
2023-01-19T10:56:08.833Z,8
2023-01-19T10:57:09.015Z,8
2023-01-19T10:58:09.320Z,8
2023-01-19T10:59:09.499Z,8.1
2023-01-19T11:00:09.793Z,8.1
2023-01-19T11:01:10.237Z,8.1
2023-01-19T11:02:11.030Z,8.1
2023-01-19T11:03:11.572Z,8.1
2023-01-19T11:04:11.864Z,8.1
2023-01-19T11:05:12.105Z,8.1
2023-01-19T11:06:12.327Z,8.1
2023-01-19T11:07:12.514Z,8.1
2023-01-19T11:08:12.682Z,8.1
2023-01-19T11:09:12.844Z,8.1
2023-01-19T11:10:13.013Z,8.1
2023-01-19T11:11:13.195Z,8.1
2023-01-19T11:12:13.372Z,8.1
2023-01-19T11:13:13.643Z,8.1
2023-01-19T11:14:13.942Z,8.1
2023-01-19T11:15:14.142Z,8.1
2023-01-19T11:16:14.343Z,8.1
2023-01-19T11:17:14.549Z,8.1
2023-01-19T11:18:14.713Z,8.1
2023-01-19T11:19:14.885Z,8.39
2023-01-19T11:20:15.061Z,8.39
2023-01-19T11:21:15.246Z,8.39
2023-01-19T11:22:15.457Z,8.39
2023-01-19T11:23:15.620Z,8.39
2023-01-19T11:24:15.783Z,8.39
2023-01-19T11:25:15.945Z,8.39
2023-01-19T11:26:16.117Z,8.39
2023-01-19T11:27:16.281Z,8.39
2023-01-19T11:28:16.460Z,8.39
2023-01-19T11:29:16.731Z,8.8
2023-01-19T11:30:17.072Z,8.8
2023-01-19T11:31:17.635Z,8.8
2023-01-19T11:32:18.088Z,8.8
2023-01-19T11:33:18.253Z,8.8
2023-01-19T11:34:18.413Z,8.8
2023-01-19T11:35:18.592Z,8.8
2023-01-19T11:36:18.768Z,8.8
2023-01-19T11:37:18.977Z,8.8
2023-01-19T11:38:19.176Z,8.8
2023-01-19T11:39:19.354Z,9.3
2023-01-19T11:40:19.541Z,9.3
2023-01-19T11:41:19.708Z,9.3
2023-01-19T11:42:19.900Z,9.3
2023-01-19T11:43:20.096Z,9.3
2023-01-19T11:44:20.276Z,9.3
2023-01-19T11:45:20.462Z,9.3
2023-01-19T11:46:20.722Z,9.3
2023-01-19T11:47:20.970Z,9.3
2023-01-19T11:48:21.152Z,9.3
2023-01-19T11:49:21.322Z,9.7
2023-01-19T11:50:21.491Z,9.7
2023-01-19T11:51:21.723Z,9.7
2023-01-19T11:52:21.896Z,9.7
2023-01-19T11:53:22.067Z,9.7
2023-01-19T11:54:22.239Z,9.7
2023-01-19T11:55:22.421Z,9.7
2023-01-19T11:56:22.612Z,9.7
2023-01-19T11:57:22.783Z,9.7
2023-01-19T11:58:22.978Z,9.7
2023-01-19T11:59:23.144Z,9.8
2023-01-19T12:00:23.300Z,9.8
2023-01-19T12:01:23.698Z,9.8
2023-01-19T12:02:24.113Z,9.8
2023-01-19T12:03:24.587Z,9.8
2023-01-19T12:04:24.854Z,9.8
2023-01-19T12:05:25.031Z,9.8
2023-01-19T12:06:25.199Z,9.8
2023-01-19T12:07:25.368Z,9.8
2023-01-19T12:08:25.550Z,9.6
2023-01-19T12:09:25.718Z,9.6
2023-01-19T12:10:25.894Z,9.6
2023-01-19T12:11:26.071Z,9.6
2023-01-19T12:12:26.244Z,9.6
2023-01-19T12:13:26.421Z,9.6
2023-01-19T12:14:26.605Z,9.6
2023-01-19T12:15:26.801Z,9.6
2023-01-19T12:16:27.023Z,9.6
2023-01-19T12:17:27.248Z,9.6
2023-01-19T12:18:27.421Z,9.8
2023-01-19T12:19:27.590Z,9.8
2023-01-19T12:20:27.941Z,9.8
2023-01-19T12:21:28.169Z,9.8
2023-01-19T12:22:28.352Z,9.8
2023-01-19T12:23:28.528Z,9.8
2023-01-19T12:24:28.842Z,9.8
2023-01-19T12:25:29.189Z,9.8
2023-01-19T12:26:29.411Z,9.8
2023-01-19T12:27:29.603Z,9.8
2023-01-19T12:28:29.779Z,10.2
2023-01-19T12:29:29.975Z,10.2
2023-01-19T12:30:30.311Z,10.2
2023-01-19T12:31:30.891Z,10.2
2023-01-19T12:32:31.313Z,10.2
2023-01-19T12:33:31.552Z,10.2
2023-01-19T12:34:31.786Z,10.2
2023-01-19T12:35:31.949Z,10.2
2023-01-19T12:36:32.134Z,10.2
2023-01-19T12:37:32.350Z,10.2
2023-01-19T12:38:32.542Z,10.6
2023-01-19T12:39:32.720Z,10.6
2023-01-19T12:40:32.909Z,10.6
2023-01-19T12:41:33.083Z,10.6
2023-01-19T12:42:33.257Z,10.6
2023-01-19T12:43:33.444Z,10.6
2023-01-19T12:44:33.620Z,10.6
2023-01-19T12:45:33.905Z,10.6
2023-01-19T12:46:34.141Z,10.6
2023-01-19T12:47:34.364Z,10.6
2023-01-19T12:48:34.534Z,11
2023-01-19T12:49:34.705Z,11
2023-01-19T12:50:34.885Z,11
2023-01-19T12:51:35.089Z,11
2023-01-19T12:52:35.264Z,11
2023-01-19T12:53:35.435Z,11
2023-01-19T12:54:35.602Z,11
2023-01-19T12:55:35.780Z,11
2023-01-19T12:56:35.943Z,11
2023-01-19T12:57:36.121Z,11
2023-01-19T12:58:36.281Z,11.7
2023-01-19T12:59:36.445Z,11.7
2023-01-19T13:00:36.626Z,11.7
2023-01-19T13:01:37.094Z,11.7
2023-01-19T13:02:37.515Z,11.7
2023-01-19T13:03:37.824Z,11.7
2023-01-19T13:04:38.343Z,11.7
2023-01-19T13:05:38.578Z,11.7
2023-01-19T13:06:38.855Z,11.7
2023-01-19T13:07:39.020Z,11.7
2023-01-19T13:08:39.184Z,12
2023-01-19T13:09:39.374Z,12
2023-01-19T13:10:39.576Z,12
2023-01-19T13:11:39.769Z,12
2023-01-19T13:12:39.946Z,12
2023-01-19T13:13:40.183Z,12
2023-01-19T13:14:40.399Z,12
2023-01-19T13:15:40.637Z,12
2023-01-19T13:16:40.846Z,12
2023-01-19T13:17:41.013Z,12
2023-01-19T13:18:41.204Z,12.1
2023-01-19T13:19:41.386Z,12.1
2023-01-19T13:20:41.553Z,12.1
2023-01-19T13:21:45.048Z,12.1
2023-01-19T13:22:45.376Z,12.1
2023-01-19T13:23:45.544Z,12.1
2023-01-19T13:24:45.727Z,12.1
2023-01-19T13:25:45.893Z,12.1
2023-01-19T13:26:46.057Z,12.1
2023-01-19T13:27:49.783Z,12.1
2023-01-19T13:28:50.184Z,11.6
2023-01-19T13:29:50.358Z,11.6
2023-01-19T13:30:50.781Z,11.6
2023-01-19T13:31:51.111Z,11.6
2023-01-19T13:32:51.344Z,11.6
2023-01-19T13:33:51.579Z,11.6
2023-01-19T13:34:51.778Z,11.6
2023-01-19T13:35:51.958Z,11.6
2023-01-19T13:36:52.240Z,11.6